createdAt,value
2022-12-29T22:59:32.260Z,1008.85
2022-12-29T23:00:32.191Z,1008.83
2022-12-29T23:01:32.237Z,1008.92
2022-12-29T23:02:32.300Z,1008.85
2022-12-29T23:03:32.215Z,1008.88
2022-12-29T23:05:03.125Z,1008.93
2022-12-29T23:05:33.157Z,1008.92
2022-12-29T23:06:32.131Z,1008.97
2022-12-29T23:07:32.142Z,1008.98
2022-12-29T23:08:32.115Z,1008.97
2022-12-29T23:09:32.113Z,1009.00
2022-12-29T23:10:32.065Z,1009.04
2022-12-29T23:11:32.054Z,1009.08
2022-12-29T23:12:32.103Z,1009.06
2022-12-29T23:13:32.039Z,1009.08
2022-12-29T23:14:32.030Z,1009.02
2022-12-29T23:15:32.028Z,1009.18
2022-12-29T23:16:32.051Z,1009.20
2022-12-29T23:17:32.003Z,1009.21
2022-12-29T23:18:31.999Z,1009.26
2022-12-29T23:19:31.982Z,1009.24
2022-12-29T23:20:31.989Z,1009.26
2022-12-29T23:21:31.939Z,1009.27
2022-12-29T23:22:31.944Z,1009.35
2022-12-29T23:23:31.917Z,1009.36
2022-12-29T23:24:31.923Z,1009.38
2022-12-29T23:25:31.890Z,1009.38
2022-12-29T23:26:31.922Z,1009.44
2022-12-29T23:27:31.888Z,1009.47
2022-12-29T23:28:31.860Z,1009.45
2022-12-29T23:29:31.891Z,1009.48
2022-12-29T23:30:31.834Z,1009.50
2022-12-29T23:31:31.931Z,1009.53
2022-12-29T23:32:31.859Z,1009.51
2022-12-29T23:33:31.802Z,1009.54
2022-12-29T23:34:31.782Z,1009.56
2022-12-29T23:35:31.786Z,1009.57
2022-12-29T23:36:31.773Z,1009.58
2022-12-29T23:37:31.748Z,1009.62
2022-12-29T23:38:31.767Z,1009.59
2022-12-29T23:39:31.733Z,1009.65
2022-12-29T23:40:31.754Z,1009.68
2022-12-29T23:41:31.728Z,1009.68
2022-12-29T23:42:31.725Z,1009.73
2022-12-29T23:43:31.695Z,1009.73
2022-12-29T23:44:31.714Z,1009.74
2022-12-29T23:45:31.652Z,1009.77
2022-12-29T23:46:31.716Z,1009.84
2022-12-29T23:47:31.647Z,1009.85
2022-12-29T23:48:31.658Z,1009.76
2022-12-29T23:49:31.599Z,1009.79
2022-12-29T23:50:31.613Z,1009.78
2022-12-29T23:51:31.595Z,1009.75
2022-12-29T23:52:31.594Z,1009.80
2022-12-29T23:53:31.587Z,1009.88
2022-12-29T23:54:31.594Z,1009.79
2022-12-29T23:55:31.536Z,1009.86
2022-12-29T23:56:31.538Z,1009.89
2022-12-29T23:57:31.552Z,1009.93
2022-12-29T23:58:31.531Z,1009.85
2022-12-29T23:59:31.500Z,1009.88
